createdAt,value
2019-01-06T00:02:09.404Z,7.13
2019-01-06T00:05:07.764Z,7.93
2019-01-06T00:07:52.488Z,7.27
2019-01-06T00:10:53.553Z,7.57
2019-01-06T00:13:45.734Z,7.07
2019-01-06T00:16:38.173Z,7.40
2019-01-06T00:19:25.990Z,8.23
2019-01-06T00:22:17.514Z,7.03
2019-01-06T00:25:05.255Z,7.60
2019-01-06T00:27:52.850Z,7.90
2019-01-06T00:30:46.573Z,7.90
2019-01-06T00:33:32.739Z,7.00
2019-01-06T00:36:20.982Z,8.70
2019-01-06T00:39:10.305Z,7.97
2019-01-06T00:41:57.943Z,8.27
2019-01-06T00:44:50.087Z,8.30
2019-01-06T00:47:57.329Z,7.90
2019-01-06T00:50:45.035Z,10.93
2019-01-06T00:53:34.298Z,9.40
2019-01-06T00:56:29.719Z,9.07
2019-01-06T00:59:17.637Z,9.17
2019-01-06T01:02:19.420Z,9.07
2019-01-06T01:05:08.700Z,9.30
2019-01-06T01:08:13.102Z,8.90
2019-01-06T01:11:11.238Z,8.33
2019-01-06T01:13:58.874Z,9.03
2019-01-06T01:16:46.923Z,8.90
2019-01-06T01:19:36.202Z,9.13
2019-01-06T01:22:15.788Z,10.10
2019-01-06T01:25:17.175Z,9.63
2019-01-06T01:28:22.230Z,8.97
2019-01-06T01:31:14.303Z,10.23
2019-01-06T01:34:03.597Z,8.33
2019-01-06T01:37:08.145Z,8.00
2019-01-06T01:39:56.968Z,9.43
2019-01-06T01:42:58.416Z,9.57
2019-01-06T01:45:46.114Z,9.47
2019-01-06T01:48:33.942Z,9.33
2019-01-06T01:51:26.137Z,10.37
2019-01-06T01:54:14.196Z,9.77
2019-01-06T01:57:11.567Z,10.23
2019-01-06T01:59:59.321Z,9.70
2019-01-06T02:03:03.598Z,9.63
2019-01-06T02:06:01.759Z,9.67
2019-01-06T02:08:59.835Z,9.93
2019-01-06T02:11:52.092Z,10.13
2019-01-06T02:14:44.160Z,9.63
2019-01-06T02:17:36.424Z,9.80
2019-01-06T02:20:41.034Z,10.20
2019-01-06T02:23:28.581Z,8.87
2019-01-06T02:26:16.265Z,9.77
2019-01-06T02:29:04.385Z,9.80
2019-01-06T02:32:02.620Z,9.57
2019-01-06T02:34:50.301Z,10.50
2019-01-06T02:37:42.449Z,9.27
2019-01-06T02:40:47.337Z,9.73
2019-01-06T02:43:46.184Z,10.07
2019-01-06T02:46:40.251Z,9.00
2019-01-06T02:49:44.500Z,9.73
2019-01-06T02:52:51.848Z,10.03
2019-01-06T02:55:41.103Z,10.07
2019-01-06T02:58:27.400Z,9.83
2019-01-06T03:01:25.828Z,9.90
2019-01-06T03:04:04.766Z,9.43
2019-01-06T03:06:57.228Z,9.53
2019-01-06T03:10:04.604Z,9.20
2019-01-06T03:12:53.994Z,9.90
2019-01-06T03:15:34.814Z,8.57
2019-01-06T03:18:28.949Z,9.00
2019-01-06T03:21:22.357Z,8.27
2019-01-06T03:24:11.505Z,8.50
2019-01-06T03:27:07.020Z,8.23
2019-01-06T03:29:58.369Z,8.47
2019-01-06T03:32:54.340Z,9.00
2019-01-06T03:35:52.465Z,8.47
2019-01-06T03:38:40.244Z,8.63
2019-01-06T03:41:34.018Z,7.93
2019-01-06T03:44:21.880Z,8.50
2019-01-06T03:47:19.456Z,8.50
2019-01-06T03:50:08.872Z,8.13
2019-01-06T03:52:56.738Z,8.17
2019-01-06T03:55:44.459Z,7.73
2019-01-06T03:58:32.246Z,7.83
2019-01-06T04:01:27.377Z,7.97
2019-01-06T04:04:09.764Z,7.97
2019-01-06T04:07:05.210Z,7.83
2019-01-06T04:09:53.192Z,7.37
2019-01-06T04:12:49.251Z,8.73
2019-01-06T04:15:35.862Z,8.23
2019-01-06T04:18:15.774Z,8.17
2019-01-06T04:21:23.169Z,8.43
2019-01-06T04:24:27.998Z,8.57
2019-01-06T04:27:15.842Z,7.80
2019-01-06T04:30:03.756Z,8.23
2019-01-06T04:32:46.177Z,8.20
2019-01-06T04:35:41.337Z,8.87
2019-01-06T04:38:30.685Z,8.77
2019-01-06T04:41:23.610Z,8.37
2019-01-06T04:44:12.824Z,7.83
2019-01-06T04:47:00.736Z,7.83
2019-01-06T04:49:55.666Z,8.43
2019-01-06T04:53:03.062Z,8.60
2019-01-06T04:55:50.836Z,8.57
2019-01-06T04:58:42.706Z,8.87
2019-01-06T05:01:30.491Z,8.33
2019-01-06T05:04:22.994Z,8.30
2019-01-06T05:07:27.600Z,7.77
2019-01-06T05:10:20.052Z,8.43
2019-01-06T05:13:18.581Z,8.33
2019-01-06T05:16:10.862Z,7.80
2019-01-06T05:19:01.016Z,7.60
2019-01-06T05:21:50.322Z,8.03
2019-01-06T05:24:38.135Z,8.50
2019-01-06T05:27:26.495Z,8.50
2019-01-06T05:30:14.468Z,8.33
2019-01-06T05:33:09.546Z,9.03
2019-01-06T05:35:57.358Z,8.30
2019-01-06T05:38:47.065Z,9.07
2019-01-06T05:41:32.654Z,9.37
2019-01-06T05:44:11.774Z,9.00
2019-01-06T05:47:03.975Z,9.30
2019-01-06T05:49:54.056Z,9.33
2019-01-06T05:52:43.311Z,9.90
2019-01-06T05:55:32.605Z,8.33
2019-01-06T05:58:21.945Z,9.10
2019-01-06T06:01:06.064Z,8.20
2019-01-06T06:04:04.433Z,8.13
2019-01-06T06:06:51.786Z,8.27
2019-01-06T06:09:51.030Z,9.00
2019-01-06T06:12:38.812Z,9.10
2019-01-06T06:15:26.735Z,8.60
2019-01-06T06:18:14.575Z,8.87
2019-01-06T06:21:09.890Z,8.80
2019-01-06T06:23:59.248Z,8.70
2019-01-06T06:26:47.261Z,8.83
2019-01-06T06:29:48.693Z,10.23
2019-01-06T06:32:36.758Z,8.90
2019-01-06T06:35:24.752Z,9.57
2019-01-06T06:38:17.076Z,8.73
2019-01-06T06:41:04.971Z,9.33
2019-01-06T06:44:07.650Z,9.47
2019-01-06T06:47:15.043Z,9.20
2019-01-06T06:50:00.456Z,9.17
2019-01-06T06:52:40.694Z,9.60
2019-01-06T06:55:28.474Z,9.70
2019-01-06T06:58:35.353Z,8.63
2019-01-06T07:02:32.008Z,10.37
2019-01-06T07:05:24.294Z,10.37
2019-01-06T07:08:12.300Z,9.70
2019-01-06T07:11:00.123Z,9.47
2019-01-06T07:13:47.904Z,9.30
2019-01-06T07:17:11.211Z,10.23
2019-01-06T07:20:15.643Z,9.97
2019-01-06T07:23:05.441Z,11.17
2019-01-06T07:25:53.149Z,10.27
2019-01-06T07:28:40.803Z,10.23
2019-01-06T07:31:32.900Z,10.30
2019-01-06T07:34:25.822Z,10.47
2019-01-06T07:37:13.414Z,10.63
2019-01-06T07:40:08.879Z,10.83
2019-01-06T07:42:56.653Z,11.30
2019-01-06T07:45:51.652Z,11.03
2019-01-06T07:48:39.617Z,11.73
2019-01-06T07:51:31.849Z,11.57
2019-01-06T07:54:23.991Z,12.53
2019-01-06T07:57:15.777Z,12.67
2019-01-06T08:00:05.050Z,13.53
2019-01-06T08:02:54.374Z,13.73
2019-01-06T08:05:43.138Z,13.80
2019-01-06T08:08:48.449Z,15.33
2019-01-06T08:11:40.486Z,14.07
2019-01-06T08:14:39.712Z,15.47
2019-01-06T08:17:31.769Z,16.57
2019-01-06T08:20:19.573Z,14.43
2019-01-06T08:23:26.738Z,15.83
2019-01-06T08:26:21.643Z,15.97
2019-01-06T08:29:20.285Z,15.77
2019-01-06T08:32:08.014Z,16.00
2019-01-06T08:34:56.324Z,17.00
2019-01-06T08:37:52.057Z,16.47
2019-01-06T08:40:53.354Z,14.73
2019-01-06T08:43:40.999Z,16.57
2019-01-06T08:46:39.055Z,15.83
2019-01-06T08:49:31.431Z,15.47
2019-01-06T08:52:19.134Z,16.13
2019-01-06T08:55:11.449Z,15.40
2019-01-06T08:58:18.682Z,15.93
2019-01-06T09:01:19.833Z,15.80
2019-01-06T09:04:24.338Z,14.93
2019-01-06T09:07:04.926Z,15.50
2019-01-06T09:09:52.902Z,13.73
2019-01-06T09:12:43.032Z,14.40
2019-01-06T09:15:29.594Z,14.90
2019-01-06T09:18:17.680Z,13.97
2019-01-06T09:21:07.044Z,14.17
2019-01-06T09:23:55.480Z,14.30
2019-01-06T09:26:57.096Z,12.63
2019-01-06T09:29:46.327Z,13.17
2019-01-06T09:32:42.496Z,12.63
2019-01-06T09:35:40.602Z,13.27
2019-01-06T09:38:28.855Z,13.13
2019-01-06T09:41:18.352Z,12.80
2019-01-06T09:44:06.477Z,12.43
2019-01-06T09:46:51.168Z,12.17
2019-01-06T09:49:39.010Z,11.37
2019-01-06T09:52:32.602Z,11.67
2019-01-06T09:55:31.054Z,11.80
2019-01-06T09:58:12.995Z,11.53
2019-01-06T10:01:00.908Z,11.30
2019-01-06T10:03:54.396Z,12.10
2019-01-06T10:06:52.619Z,11.13
2019-01-06T10:09:40.984Z,10.93
2019-01-06T10:12:30.287Z,9.83
2019-01-06T10:15:37.885Z,10.40
2019-01-06T10:18:25.750Z,11.47
2019-01-06T10:21:22.702Z,10.30
2019-01-06T10:24:18.111Z,9.93
2019-01-06T10:27:21.552Z,8.83
2019-01-06T10:30:25.822Z,15.90
2019-01-06T10:33:11.435Z,10.63
2019-01-06T10:35:58.804Z,9.73
2019-01-06T10:38:58.580Z,10.03
2019-01-06T10:41:46.783Z,9.63
2019-01-06T10:44:38.838Z,9.93
2019-01-06T10:47:28.163Z,9.83
2019-01-06T10:50:20.475Z,9.53
2019-01-06T10:53:09.427Z,10.80
2019-01-06T10:56:01.746Z,10.80
2019-01-06T10:58:57.117Z,11.90
2019-01-06T11:01:59.073Z,10.63
2019-01-06T11:04:47.004Z,11.07
2019-01-06T11:07:39.174Z,12.03
2019-01-06T11:10:40.559Z,13.10
2019-01-06T11:13:28.349Z,12.23
2019-01-06T11:16:17.738Z,16.10
2019-01-06T11:19:05.768Z,11.67
2019-01-06T11:22:02.627Z,13.10
2019-01-06T11:25:00.753Z,12.40
2019-01-06T11:27:59.143Z,12.07
2019-01-06T11:30:47.227Z,11.90
2019-01-06T11:33:32.330Z,11.70
2019-01-06T11:36:20.012Z,11.93
2019-01-06T11:39:12.327Z,11.43
2019-01-06T11:42:10.720Z,11.57
2019-01-06T11:45:00.879Z,11.30
2019-01-06T11:48:05.482Z,11.23
2019-01-06T11:50:53.442Z,10.90
2019-01-06T11:53:48.848Z,10.27
2019-01-06T11:56:47.277Z,10.87
2019-01-06T11:59:35.062Z,9.90
2019-01-06T12:02:24.062Z,10.10
2019-01-06T12:05:13.429Z,10.00
2019-01-06T12:08:01.030Z,9.00
2019-01-06T12:10:52.153Z,8.60
2019-01-06T12:13:44.947Z,8.67
2019-01-06T12:16:40.195Z,8.17
2019-01-06T12:19:33.765Z,8.23
2019-01-06T12:22:37.380Z,8.33
2019-01-06T12:25:23.785Z,8.87
2019-01-06T12:28:28.588Z,8.73
2019-01-06T12:31:24.264Z,8.07
2019-01-06T12:34:25.935Z,6.77
2019-01-06T12:37:19.498Z,6.27
2019-01-06T12:40:08.998Z,7.87
2019-01-06T12:42:58.307Z,7.50
2019-01-06T12:45:44.176Z,7.57
2019-01-06T12:48:36.279Z,6.17
2019-01-06T12:51:45.097Z,7.30
2019-01-06T12:54:28.256Z,7.00
2019-01-06T12:57:26.254Z,7.30
2019-01-06T13:00:14.038Z,13.70
2019-01-06T13:03:02.245Z,8.00
2019-01-06T13:05:49.979Z,5.70
2019-01-06T13:08:39.206Z,6.67
2019-01-06T13:11:28.547Z,6.00
2019-01-06T13:14:16.553Z,6.10
2019-01-06T13:17:00.663Z,5.13
2019-01-06T13:19:48.677Z,6.00
2019-01-06T13:22:36.487Z,5.90
2019-01-06T13:25:36.109Z,5.33
2019-01-06T13:28:23.313Z,5.80
2019-01-06T13:31:24.575Z,5.33
2019-01-06T13:34:12.372Z,4.60
2019-01-06T13:37:20.044Z,5.40
2019-01-06T13:40:20.080Z,4.47
2019-01-06T13:43:11.766Z,4.77
2019-01-06T13:45:55.303Z,5.47
2019-01-06T13:48:41.704Z,4.60
2019-01-06T13:51:30.993Z,4.73
2019-01-06T13:54:33.880Z,4.47
2019-01-06T13:57:24.454Z,3.87
2019-01-06T14:00:22.390Z,3.47
2019-01-06T14:03:23.709Z,3.40
2019-01-06T14:06:11.522Z,3.57
2019-01-06T14:09:03.758Z,3.50
2019-01-06T14:12:02.507Z,3.57
2019-01-06T14:14:51.231Z,3.47
2019-01-06T14:17:40.514Z,3.53
2019-01-06T14:20:47.747Z,3.60
2019-01-06T14:23:40.201Z,4.40
2019-01-06T14:26:27.949Z,3.50
2019-01-06T14:29:15.571Z,3.57
2019-01-06T14:32:03.717Z,3.47
2019-01-06T14:34:51.696Z,3.50
2019-01-06T14:37:52.937Z,3.03
2019-01-06T14:40:48.523Z,3.17
2019-01-06T14:43:52.797Z,2.97
2019-01-06T14:46:42.083Z,3.13
2019-01-06T14:49:40.225Z,3.10
2019-01-06T14:52:28.180Z,3.53
2019-01-06T14:55:25.393Z,3.33
2019-01-06T14:58:13.596Z,2.93
2019-01-06T15:01:11.807Z,3.57
2019-01-06T15:04:01.075Z,4.13
2019-01-06T15:07:05.381Z,4.23
2019-01-06T15:09:55.335Z,3.97
2019-01-06T15:12:59.610Z,4.30
2019-01-06T15:15:51.913Z,4.67
2019-01-06T15:18:53.080Z,4.47
2019-01-06T15:21:54.507Z,4.50
2019-01-06T15:24:49.757Z,4.43
2019-01-06T15:27:37.479Z,4.17
2019-01-06T15:30:39.726Z,4.03
2019-01-06T15:33:37.187Z,4.17
2019-01-06T15:36:26.568Z,4.30
2019-01-06T15:39:21.868Z,3.80
2019-01-06T15:42:09.850Z,3.97
2019-01-06T15:44:59.142Z,3.77
2019-01-06T15:48:03.598Z,3.63
2019-01-06T15:50:51.684Z,4.80
2019-01-06T15:53:44.011Z,4.87
2019-01-06T15:56:45.548Z,4.03
2019-01-06T15:59:38.277Z,4.10
2019-01-06T16:02:19.737Z,4.50
2019-01-06T16:05:09.039Z,4.80
2019-01-06T16:08:13.594Z,4.13
2019-01-06T16:11:02.899Z,4.97
2019-01-06T16:14:07.204Z,4.40
2019-01-06T16:16:54.988Z,4.03
2019-01-06T16:19:59.482Z,4.70
2019-01-06T16:23:04.756Z,5.83
2019-01-06T16:26:08.800Z,5.40
2019-01-06T16:29:04.132Z,6.00
2019-01-06T16:32:06.661Z,6.83
2019-01-06T16:34:54.844Z,6.77
2019-01-06T16:37:43.851Z,7.67
2019-01-06T16:40:33.291Z,6.33
2019-01-06T16:43:32.420Z,6.97
2019-01-06T16:46:31.579Z,7.33
2019-01-06T16:49:08.461Z,7.60
2019-01-06T16:51:57.049Z,7.87
2019-01-06T16:54:44.752Z,12.07
2019-01-06T16:57:57.812Z,9.13
2019-01-06T17:01:09.892Z,8.50
2019-01-06T17:04:28.957Z,9.17
2019-01-06T17:07:45.578Z,9.87
2019-01-06T17:10:42.433Z,9.40
2019-01-06T17:13:52.620Z,10.10
2019-01-06T17:16:46.731Z,10.07
2019-01-06T17:19:48.106Z,9.73
2019-01-06T17:22:35.958Z,10.80
2019-01-06T17:25:27.791Z,10.60
2019-01-06T17:28:26.180Z,11.10
2019-01-06T17:31:16.349Z,11.77
2019-01-06T17:34:04.258Z,11.70
2019-01-06T17:36:57.733Z,11.53
2019-01-06T17:39:55.810Z,12.20
2019-01-06T17:42:43.780Z,12.30
2019-01-06T17:45:31.515Z,12.63
2019-01-06T17:48:24.530Z,12.70
2019-01-06T17:51:12.631Z,14.50
2019-01-06T17:54:00.529Z,13.10
2019-01-06T17:56:48.467Z,13.50
2019-01-06T17:59:36.384Z,12.07
2019-01-06T18:02:28.490Z,12.90
2019-01-06T18:05:23.601Z,13.87
2019-01-06T18:08:11.538Z,13.40
2019-01-06T18:11:01.138Z,14.27
2019-01-06T18:13:49.467Z,14.37
2019-01-06T18:16:51.079Z,14.33
2019-01-06T18:19:38.857Z,17.03
2019-01-06T18:22:26.802Z,15.73
2019-01-06T18:25:29.463Z,15.80
2019-01-06T18:28:37.050Z,17.33
2019-01-06T18:31:24.723Z,15.73
2019-01-06T18:34:32.254Z,16.70
2019-01-06T18:37:33.343Z,15.33
2019-01-06T18:40:21.412Z,15.47
2019-01-06T18:43:20.484Z,16.13
2019-01-06T18:46:08.726Z,16.23
2019-01-06T18:48:49.768Z,15.50
2019-01-06T18:51:57.106Z,16.57
2019-01-06T18:54:49.001Z,14.70
2019-01-06T18:57:44.074Z,15.70
2019-01-06T19:00:42.906Z,16.53
2019-01-06T19:03:38.226Z,16.33
2019-01-06T19:06:27.537Z,16.60
2019-01-06T19:09:15.416Z,16.57
2019-01-06T19:12:17.153Z,17.37
2019-01-06T19:15:05.210Z,17.57
2019-01-06T19:18:05.528Z,18.37
2019-01-06T19:20:53.802Z,18.53
2019-01-06T19:23:42.360Z,17.57
2019-01-06T19:26:34.606Z,18.17
2019-01-06T19:29:24.021Z,18.93
2019-01-06T19:32:12.400Z,19.07
2019-01-06T19:35:06.499Z,18.07
2019-01-06T19:37:55.271Z,18.67
2019-01-06T19:40:43.058Z,18.43
2019-01-06T19:43:34.344Z,17.93
2019-01-06T19:46:21.193Z,19.03
2019-01-06T19:49:19.865Z,18.40
2019-01-06T19:52:25.005Z,17.27
2019-01-06T19:55:14.743Z,16.80
2019-01-06T19:58:16.376Z,16.60
2019-01-06T20:01:04.680Z,17.50
2019-01-06T20:03:52.582Z,23.07
2019-01-06T20:06:57.081Z,16.70
2019-01-06T20:09:45.551Z,17.07
2019-01-06T20:12:47.999Z,15.57
2019-01-06T20:15:36.012Z,17.33
2019-01-06T20:18:25.694Z,16.33
2019-01-06T20:21:17.114Z,17.80
2019-01-06T20:28:25.022Z,17.77
2019-01-06T20:31:49.010Z,18.73
2019-01-06T20:35:30.357Z,17.77
2019-01-06T20:38:44.123Z,17.83
2019-01-06T20:42:16.123Z,17.33
2019-01-06T20:45:13.970Z,17.80
2019-01-06T20:48:19.902Z,16.77
2019-01-06T20:51:16.093Z,17.87
2019-01-06T20:54:13.034Z,18.37
2019-01-06T20:57:02.988Z,17.40
2019-01-06T20:59:52.969Z,17.87
2019-01-06T21:02:43.041Z,18.37
2019-01-06T21:05:26.576Z,19.00
2019-01-06T21:08:16.602Z,16.93
2019-01-06T21:11:05.930Z,18.53
2019-01-06T21:13:53.641Z,18.03
2019-01-06T21:16:41.623Z,17.63
2019-01-06T21:19:36.983Z,17.67
2019-01-06T21:22:32.422Z,18.07
2019-01-06T21:25:19.222Z,18.10
2019-01-06T21:28:07.288Z,18.43
2019-01-06T21:30:56.733Z,19.13
2019-01-06T21:33:54.798Z,18.27
2019-01-06T21:36:42.736Z,18.20
2019-01-06T21:39:43.199Z,17.30
2019-01-06T21:42:30.231Z,17.63
2019-01-06T21:45:31.936Z,17.70
2019-01-06T21:48:33.656Z,18.10
2019-01-06T21:51:31.770Z,19.13
2019-01-06T21:54:23.908Z,18.40
2019-01-06T21:57:22.144Z,17.83
2019-01-06T22:00:20.265Z,17.47
2019-01-06T22:03:08.236Z,18.30
2019-01-06T22:05:57.500Z,18.97
2019-01-06T22:08:55.801Z,19.67
2019-01-06T22:11:57.059Z,18.13
2019-01-06T22:14:45.013Z,19.27
2019-01-06T22:17:36.251Z,19.37
2019-01-06T22:20:28.470Z,20.33
2019-01-06T22:23:17.857Z,20.17
2019-01-06T22:26:02.167Z,19.20
2019-01-06T22:28:49.918Z,19.27
2019-01-06T22:31:37.377Z,20.00
2019-01-06T22:34:25.322Z,20.00
2019-01-06T22:37:15.928Z,21.10
2019-01-06T22:40:13.990Z,19.23
2019-01-06T22:43:05.306Z,20.50
2019-01-06T22:45:53.206Z,20.93
2019-01-06T22:48:51.453Z,21.13
2019-01-06T22:51:46.968Z,20.87
2019-01-06T22:54:35.057Z,19.87
2019-01-06T22:57:23.191Z,20.70
2019-01-06T23:00:10.943Z,21.00
2019-01-06T23:02:58.876Z,21.17
2019-01-06T23:05:45.820Z,20.67
2019-01-06T23:08:33.684Z,20.60
2019-01-06T23:11:28.713Z,21.83
2019-01-06T23:14:20.101Z,22.27
2019-01-06T23:17:12.340Z,23.07
2019-01-06T23:20:03.586Z,21.17
2019-01-06T23:22:51.791Z,21.57
2019-01-06T23:25:41.075Z,23.43
2019-01-06T23:28:46.189Z,22.90
2019-01-06T23:31:41.213Z,23.17
2019-01-06T23:34:38.626Z,21.87
2019-01-06T23:37:26.442Z,23.73
2019-01-06T23:40:21.737Z,22.73
2019-01-06T23:43:13.744Z,23.53
2019-01-06T23:45:57.071Z,22.73
2019-01-06T23:48:52.400Z,24.03
2019-01-06T23:51:35.619Z,22.80
2019-01-06T23:54:23.443Z,24.13
2019-01-06T23:57:21.551Z,22.37
